.
WxDataArchive / Data Records for 2010-02-02
2010-02-01 February 2010 2010-02-03

Data Records for Tuesday, 02 February 2010

Time	Temp	Chill	HIndex	Humid	Dewpt	 Wind 	HiWind	WindDir	Rain 	Barom 
-----	----	-----	------	-----	-----	------	------	-------	-----	----- 
00:00	24.2	24.2	24.2	78	18.3	0	1	90	0.00	30.213 
00:05	24.1	24.1	24.1	78	18.3	1	3	90	0.00	30.213 
00:10	24.1	24.1	24.1	78	18.3	0	2	90	0.00	30.213 
00:15	24.1	24.1	24.1	78	18.3	0	1	90	0.00	30.209 
00:20	24.1	24.1	24.1	78	18.3	0	0	---	0.00	30.209 
00:25	24.1	24.1	24.1	78	18.3	1	2	90	0.00	30.209 
00:30	24.1	24.1	24.1	78	18.3	0	2	90	0.00	30.206 
00:35	24.1	24.1	24.1	78	18.3	1	2	90	0.00	30.206 
00:40	23.9	23.9	23.9	78	18.1	0	2	90	0.00	30.206 
00:45	23.9	23.9	23.9	79	18.4	0	1	90	0.00	30.197 
00:50	23.9	23.9	23.9	78	18.1	0	2	90	0.00	30.197 
00:55	23.9	23.9	23.9	78	18.1	1	2	90	0.00	30.197 
01:00	23.9	23.9	23.9	78	18.1	0	2	90	0.00	30.197 
01:05	23.9	23.9	23.9	78	18.1	0	1	90	0.00	30.197 
01:10	23.9	23.9	23.9	78	18.1	0	2	90	0.00	30.197 
01:15	23.9	23.9	23.9	78	18.1	0	1	90	0.00	30.200 
01:20	23.9	23.9	23.9	78	18.1	0	1	90	0.00	30.200 
01:25	23.8	23.8	23.8	78	18.0	0	1	90	0.00	30.200 
01:30	23.8	23.8	23.8	79	18.3	0	1	90	0.00	30.204 
01:35	23.9	23.9	23.9	79	18.4	0	1	90	0.00	30.204 
01:40	23.9	23.9	23.9	79	18.4	0	2	90	0.00	30.204 
01:45	23.9	23.9	23.9	79	18.4	0	2	90	0.00	30.192 
01:50	23.9	23.9	23.9	79	18.4	0	1	90	0.00	30.192 
01:55	24.1	24.1	24.1	79	18.5	0	1	90	0.00	30.192 
02:00	24.1	24.1	24.1	79	18.5	0	2	90	0.00	30.191 
02:05	24.1	24.1	24.1	79	18.5	0	2	90	0.00	30.191 
02:10	24.1	24.1	24.1	79	18.5	0	1	90	0.00	30.191 
02:15	24.2	24.2	24.2	79	18.6	1	3	90	0.00	30.181 
02:20	24.2	24.2	24.2	79	18.6	1	3	90	0.00	30.181 
02:25	24.2	24.2	24.2	79	18.6	1	3	90	0.00	30.181 
02:30	24.2	24.2	24.2	79	18.6	1	3	90	0.00	30.187 
02:35	24.2	24.2	24.2	79	18.6	1	2	90	0.00	30.187 
02:40	24.2	24.2	24.2	79	18.6	0	3	90	0.00	30.187 
02:45	24.2	24.2	24.2	79	18.6	1	2	90	0.00	30.187 
02:50	24.2	24.2	24.2	79	18.6	1	3	90	0.00	30.187 
02:55	24.2	24.2	24.2	79	18.6	0	2	90	0.00	30.187 
03:00	24.2	24.2	24.2	79	18.6	2	3	90	0.00	30.181 
03:05	24.2	24.2	24.2	80	18.9	1	4	90	0.00	30.181 
03:10	24.2	24.2	24.2	80	18.9	1	2	112	0.00	30.181 
03:15	24.2	24.2	24.2	80	18.9	1	4	112	0.00	30.179 
03:20	24.2	24.2	24.2	80	18.9	1	3	112	0.00	30.179 
03:25	24.2	24.2	24.2	81	19.2	1	3	112	0.00	30.179 
03:30	24.4	24.4	24.4	81	19.4	1	4	112	0.00	30.175 
03:35	24.4	24.4	24.4	81	19.4	1	4	112	0.00	30.175 
03:40	24.4	24.4	24.4	81	19.4	0	2	112	0.00	30.175 
03:45	24.5	24.5	24.5	81	19.5	1	2	112	0.00	30.174 
03:50	24.5	24.5	24.5	81	19.5	1	2	112	0.00	30.174 
03:55	24.5	24.5	24.5	81	19.5	1	3	112	0.00	30.174 
04:00	24.7	24.7	24.7	81	19.7	0	2	112	0.00	30.170 
04:05	24.7	24.7	24.7	81	19.7	0	2	112	0.00	30.170 
04:10	24.7	24.7	24.7	82	20.0	1	2	112	0.00	30.170 
04:15	24.7	24.7	24.7	82	20.0	1	2	112	0.00	30.161 
04:20	24.7	24.7	24.7	83	20.3	1	2	112	0.00	30.161 
04:25	24.7	24.7	24.7	83	20.3	0	2	112	0.00	30.161 
04:30	24.7	24.7	24.7	84	20.6	0	1	112	0.00	30.159 
04:35	24.7	24.7	24.7	84	20.6	0	1	112	0.00	30.159 
04:40	24.7	24.7	24.7	84	20.6	0	3	112	0.00	30.159 
04:45	24.5	24.5	24.5	85	20.6	0	1	112	0.00	30.157 
04:50	24.5	24.5	24.5	85	20.6	0	2	112	0.00	30.157 
04:55	24.5	24.5	24.5	85	20.6	0	1	112	0.00	30.157 
05:00	24.5	24.5	24.5	86	20.9	0	2	112	0.00	30.150 
05:05	24.5	24.5	24.5	86	20.9	0	2	112	0.00	30.150 
05:10	24.5	24.5	24.5	86	20.9	0	2	112	0.00	30.150 
05:15	24.5	24.5	24.5	87	21.2	1	3	112	0.00	30.158 
05:20	24.5	24.5	24.5	87	21.2	0	2	112	0.00	30.158 
05:25	24.5	24.5	24.5	87	21.2	0	1	112	0.00	30.158 
05:30	24.5	24.5	24.5	87	21.2	0	1	112	0.00	30.152 
05:35	24.5	24.5	24.5	87	21.2	1	4	112	0.00	30.152 
05:40	24.5	24.5	24.5	88	21.5	1	3	112	0.00	30.152 
05:45	24.5	24.5	24.5	88	21.5	0	3	112	0.00	30.147 
05:50	24.5	24.5	24.5	88	21.5	1	3	112	0.00	30.147 
05:55	24.5	24.5	24.5	88	21.5	1	3	112	0.00	30.147 
06:00	24.5	24.5	24.5	88	21.5	1	4	112	0.00	30.144 
06:05	24.5	24.5	24.5	88	21.5	0	2	112	0.00	30.144 
06:10	24.5	24.5	24.5	88	21.5	1	3	112	0.00	30.144 
06:15	24.5	24.5	24.5	88	21.5	1	3	112	0.00	30.144 
06:20	24.5	24.5	24.5	88	21.5	0	2	112	0.00	30.144 
06:25	24.5	24.5	24.5	88	21.5	1	3	112	0.00	30.144 
06:30	24.5	24.5	24.5	88	21.5	1	3	112	0.00	30.143 
06:35	24.5	24.5	24.5	88	21.5	1	4	112	0.00	30.143 
06:40	24.5	24.5	24.5	88	21.5	1	3	112	0.00	30.143 
06:45	24.4	24.4	24.4	89	21.6	1	2	112	0.00	30.144 
06:50	24.4	24.4	24.4	89	21.6	1	4	112	0.00	30.144 
06:55	24.4	24.4	24.4	89	21.6	1	3	112	0.00	30.144 
07:00	24.4	24.4	24.4	89	21.6	1	3	112	0.00	30.140 
07:05	24.4	24.4	24.4	89	21.6	1	3	112	0.00	30.140 
07:10	24.4	24.4	24.4	89	21.6	1	3	112	0.00	30.140 
07:15	24.5	24.5	24.5	89	21.7	0	2	112	0.00	30.140 
07:20	24.5	24.5	24.5	89	21.7	0	2	112	0.00	30.140 
07:25	24.5	24.5	24.5	89	21.7	0	2	112	0.00	30.140 
07:30	24.5	24.5	24.5	89	21.7	1	2	112	0.00	30.134 
07:35	24.5	24.5	24.5	89	21.7	0	2	112	0.00	30.134 
07:40	24.7	24.7	24.7	89	21.9	0	2	112	0.00	30.134 
07:45	24.7	24.7	24.7	90	22.2	1	3	112	0.00	30.134 
07:50	24.7	24.7	24.7	90	22.2	0	2	112	0.00	30.134 
07:55	24.7	24.7	24.7	90	22.2	1	2	112	0.00	30.134 
08:00	24.7	24.7	24.7	90	22.2	1	3	112	0.00	30.132 
08:05	24.7	24.7	24.7	90	22.2	0	2	112	0.00	30.132 
08:10	24.7	24.7	24.7	90	22.2	0	2	112	0.00	30.132 
08:15	24.7	24.7	24.7	90	22.2	1	3	112	0.00	30.136 
08:20	24.7	24.7	24.7	90	22.2	1	2	112	0.01	30.136 
08:25	24.7	24.7	24.7	90	22.2	1	3	112	0.00	30.136 
08:30	24.8	24.8	24.8	90	22.3	1	3	112	0.00	30.138 
08:35	24.8	24.8	24.8	90	22.3	1	3	112	0.00	30.138 
08:40	24.8	24.8	24.8	90	22.3	1	3	112	0.00	30.138 
08:45	24.8	24.8	24.8	90	22.3	1	2	90	0.00	30.140 
08:50	25.0	25.0	25.0	90	22.5	1	3	90	0.00	30.140 
08:55	25.1	25.1	25.1	90	22.6	0	2	112	0.00	30.140 
09:00	25.1	25.1	25.1	90	22.6	1	4	112	0.00	30.140 
09:05	25.1	25.1	25.1	90	22.6	1	3	112	0.00	30.140 
09:10	25.3	25.3	25.3	90	22.8	1	2	112	0.00	30.140 
09:15	25.3	25.3	25.3	91	23.0	1	3	112	0.00	30.137 
09:20	25.4	25.4	25.4	91	23.1	1	2	112	0.00	30.137 
09:25	25.6	25.6	25.6	91	23.3	1	3	112	0.00	30.137 
09:30	25.6	25.6	25.6	90	23.1	2	4	112	0.00	30.135 
09:35	25.7	25.7	25.7	91	23.4	1	3	90	0.00	30.135 
09:40	25.8	25.8	25.8	90	23.3	1	3	90	0.00	30.135 
09:45	26.0	26.0	26.0	90	23.5	2	3	90	0.00	30.133 
09:50	26.1	26.1	26.1	90	23.6	1	4	90	0.00	30.133 
09:55	26.3	26.3	26.3	90	23.8	1	3	90	0.00	30.133 
10:00	26.4	26.4	26.4	90	23.9	1	2	90	0.00	30.131 
10:05	26.6	26.6	26.6	90	24.1	1	3	90	0.00	30.131 
10:10	26.6	26.6	26.6	90	24.1	2	3	90	0.00	30.131 
10:15	26.6	26.6	26.6	90	24.1	1	4	90	0.00	30.122 
10:20	26.7	26.7	26.7	90	24.2	1	3	68	0.00	30.122 
10:25	27.0	27.0	27.0	90	24.5	1	3	68	0.00	30.122 
10:30	27.2	27.2	27.2	90	24.7	1	3	90	0.00	30.117 
10:35	27.2	27.2	27.2	90	24.7	1	4	112	0.00	30.117 
10:40	27.2	27.2	27.2	90	24.7	1	3	90	0.00	30.117 
10:45	27.3	27.3	27.3	90	24.8	1	2	90	0.00	30.115 
10:50	27.5	27.5	27.5	90	25.0	1	3	90	0.00	30.115 
10:55	27.5	27.5	27.5	90	25.0	1	3	90	0.00	30.115 
11:00	27.8	27.8	27.8	90	25.3	1	3	90	0.00	30.108 
11:05	27.9	27.9	27.9	90	25.4	1	3	90	0.00	30.108 
11:10	28.1	28.1	28.1	90	25.6	2	5	90	0.00	30.108 
11:15	28.2	28.2	28.2	90	25.7	2	5	90	0.00	30.098 
11:20	28.5	28.5	28.5	90	25.9	2	4	112	0.00	30.098 
11:25	28.7	28.7	28.7	89	25.9	2	5	90	0.00	30.098 
11:30	28.8	28.8	28.8	89	26.0	3	6	112	0.00	30.097 
11:35	28.8	28.8	28.8	91	26.5	3	5	112	0.00	30.097 
11:40	29.0	29.0	29.0	89	26.2	3	5	112	0.00	30.097 
11:45	29.3	29.3	29.3	89	26.5	2	4	112	0.00	30.086 
11:50	29.7	29.7	29.7	89	26.9	2	6	112	0.00	30.086 
11:55	29.8	29.8	29.8	89	27.0	2	6	112	0.00	30.086 
12:00	30.1	30.1	30.1	89	27.3	1	4	112	0.00	30.079 
12:05	30.4	30.4	30.4	89	27.6	2	4	112	0.00	30.079 
12:10	30.7	30.7	30.7	88	27.6	1	3	112	0.00	30.079 
12:15	31.2	31.2	31.2	88	28.1	1	2	112	0.00	30.072 
12:20	31.2	31.2	31.2	88	28.1	1	3	112	0.00	30.072 
12:25	31.6	31.6	31.6	88	28.5	1	3	112	0.00	30.072 
12:30	31.8	31.8	31.8	87	28.4	1	4	135	0.00	30.061 
12:35	31.9	31.9	31.9	87	28.5	1	3	112	0.00	30.061 
12:40	32.2	32.2	32.2	87	28.8	1	2	112	0.00	30.061 
12:45	32.7	32.7	32.7	87	29.3	1	3	158	0.00	30.054 
12:50	32.8	32.8	32.8	86	29.1	1	3	158	0.00	30.054 
12:55	32.7	32.7	32.7	85	28.7	1	5	112	0.00	30.054 
13:00	32.8	32.8	32.8	85	28.8	1	3	135	0.00	30.048 
13:05	32.9	32.9	32.9	85	28.9	1	3	112	0.00	30.048 
13:10	32.9	32.9	32.9	84	28.6	1	3	112	0.00	30.048 
13:15	32.9	32.9	32.9	84	28.6	1	4	112	0.00	30.042 
13:20	32.8	32.8	32.8	84	28.5	2	5	90	0.00	30.042 
13:25	32.8	32.8	32.8	85	28.8	1	3	112	0.00	30.042 
13:30	32.9	32.9	32.9	85	28.9	1	4	135	0.00	30.034 
13:35	32.9	32.9	32.9	85	28.9	1	3	112	0.00	30.034 
13:40	33.2	33.2	33.2	84	28.9	1	2	112	0.00	30.034 
13:45	33.2	33.2	33.2	84	28.9	1	4	90	0.00	30.029 
13:50	33.2	33.2	33.2	84	28.9	1	3	90	0.00	30.029 
13:55	33.2	33.2	33.2	84	28.9	1	2	135	0.00	30.029 
14:00	33.4	33.4	33.4	84	29.1	0	2	112	0.00	30.026 
14:05	33.5	33.5	33.5	84	29.2	0	3	112	0.01	30.026 
14:10	33.7	33.7	33.7	83	29.1	1	3	112	0.00	30.026 
14:15	33.8	33.8	33.8	83	29.2	0	2	112	0.00	30.024 
14:20	33.8	33.8	33.8	83	29.2	1	3	112	0.00	30.024 
14:25	34.0	34.0	34.0	83	29.4	0	2	112	0.00	30.024 
14:30	33.8	33.8	33.8	83	29.2	1	4	90	0.00	30.014 
14:35	33.8	33.8	33.8	83	29.2	0	1	90	0.00	30.014 
14:40	33.7	33.7	33.7	83	29.1	1	3	90	0.00	30.014 
14:45	33.7	33.7	33.7	83	29.1	1	2	90	0.00	30.013 
14:50	33.7	33.7	33.7	83	29.1	1	2	90	0.00	30.013 
14:55	33.7	33.7	33.7	83	29.1	0	2	90	0.00	30.013 
15:00	33.7	33.7	33.7	83	29.1	1	2	90	0.00	30.013 
15:05	33.7	33.7	33.7	83	29.1	1	3	90	0.00	30.013 
15:10	33.7	33.7	33.7	84	29.4	0	2	90	0.00	30.013 
15:15	33.4	33.4	33.4	83	28.8	1	3	90	0.00	30.012 
15:20	33.4	33.4	33.4	84	29.1	1	2	90	0.00	30.012 
15:25	33.4	33.4	33.4	83	28.8	1	3	90	0.00	30.012 
15:30	33.4	33.4	33.4	84	29.1	1	3	90	0.00	30.010 
15:35	33.4	33.4	33.4	83	28.8	1	3	90	0.00	30.010 
15:40	33.4	33.4	33.4	83	28.8	1	2	90	0.00	30.010 
15:45	33.4	33.4	33.4	83	28.8	1	3	90	0.00	30.012 
15:50	33.4	33.4	33.4	84	29.1	0	2	90	0.00	30.012 
15:55	33.4	33.4	33.4	84	29.1	0	1	90	0.00	30.012 
16:00	33.4	33.4	33.4	84	29.1	0	1	90	0.00	30.015 
16:05	33.4	33.4	33.4	84	29.1	0	2	90	0.00	30.015 
16:10	33.5	33.5	33.5	84	29.2	0	1	90	0.00	30.015 
16:15	33.5	33.5	33.5	83	28.9	0	2	90	0.00	30.014 
16:20	33.5	33.5	33.5	83	28.9	0	2	90	0.00	30.014 
16:25	33.5	33.5	33.5	83	28.9	0	2	90	0.00	30.014 
16:30	33.4	33.4	33.4	83	28.8	0	1	90	0.00	30.019 
16:35	33.4	33.4	33.4	83	28.8	0	1	90	0.00	30.019 
16:40	33.5	33.5	33.5	83	28.9	0	1	90	0.00	30.019 
16:45	33.5	33.5	33.5	83	28.9	0	1	90	0.00	30.020 
16:50	33.5	33.5	33.5	83	28.9	0	1	90	0.00	30.020 
16:55	33.5	33.5	33.5	83	28.9	0	1	90	0.00	30.020 
17:00	33.4	33.4	33.4	83	28.8	0	1	90	0.00	30.019 
17:05	33.4	33.4	33.4	83	28.8	0	0	---	0.00	30.019 
17:10	33.4	33.4	33.4	83	28.8	0	1	90	0.00	30.019 
17:15	33.2	33.2	33.2	83	28.6	0	2	90	0.00	30.017 
17:20	33.2	33.2	33.2	84	28.9	0	1	90	0.00	30.017 
17:25	33.1	33.1	33.1	84	28.8	0	1	90	0.00	30.017 
17:30	33.1	33.1	33.1	84	28.8	0	0	---	0.00	30.016 
17:35	33.1	33.1	33.1	85	29.1	0	1	90	0.00	30.016 
17:40	32.9	32.9	32.9	85	28.9	0	1	90	0.00	30.016 
17:45	32.9	32.9	32.9	85	28.9	0	1	90	0.00	30.019 
17:50	32.8	32.8	32.8	85	28.8	0	0	---	0.00	30.019 
17:55	32.8	32.8	32.8	85	28.8	0	1	90	0.00	30.019 
18:00	32.7	32.7	32.7	86	29.0	0	1	90	0.00	30.018 
18:05	32.7	32.7	32.7	86	29.0	0	0	---	0.00	30.018 
18:10	32.5	32.5	32.5	86	28.8	0	0	---	0.00	30.018 
18:15	32.5	32.5	32.5	86	28.8	0	1	90	0.00	30.027 
18:20	32.5	32.5	32.5	86	28.8	0	0	---	0.00	30.027 
18:25	32.5	32.5	32.5	86	28.8	0	0	---	0.00	30.027 
18:30	32.4	32.4	32.4	86	28.7	0	0	---	0.00	30.030 
18:35	32.4	32.4	32.4	86	28.7	0	0	---	0.00	30.030 
18:40	32.2	32.2	32.2	87	28.8	0	0	---	0.00	30.030 
18:45	32.2	32.2	32.2	87	28.8	0	0	---	0.00	30.033 
18:50	32.2	32.2	32.2	87	28.8	0	0	---	0.00	30.033 
18:55	32.2	32.2	32.2	87	28.8	0	0	---	0.00	30.033 
19:00	32.1	32.1	32.1	87	28.7	0	0	---	0.00	30.033 
19:05	32.1	32.1	32.1	87	28.7	0	0	---	0.00	30.033 
19:10	32.1	32.1	32.1	87	28.7	0	0	---	0.00	30.033 
19:15	32.1	32.1	32.1	87	28.7	0	0	---	0.00	30.035 
19:20	32.1	32.1	32.1	87	28.7	0	0	---	0.00	30.035 
19:25	32.1	32.1	32.1	87	28.7	0	0	---	0.00	30.035 
19:30	32.1	32.1	32.1	87	28.7	0	0	---	0.00	30.040 
19:35	32.1	32.1	32.1	87	28.7	0	0	---	0.00	30.040 
19:40	32.1	32.1	32.1	87	28.7	0	0	---	0.00	30.040 
19:45	32.1	32.1	32.1	88	29.0	0	0	---	0.00	30.041 
19:50	32.1	32.1	32.1	88	29.0	0	0	---	0.00	30.041 
19:55	31.9	31.9	31.9	88	28.8	0	0	---	0.00	30.041 
20:00	31.9	31.9	31.9	88	28.8	0	0	---	0.00	30.042 
20:05	31.9	31.9	31.9	88	28.8	0	0	---	0.00	30.042 
20:10	31.9	31.9	31.9	88	28.8	0	0	---	0.00	30.042 
20:15	31.8	31.8	31.8	88	28.7	0	0	---	0.00	30.044 
20:20	31.8	31.8	31.8	88	28.7	0	0	---	0.00	30.044 
20:25	31.8	31.8	31.8	88	28.7	0	0	---	0.00	30.044 
20:30	31.8	31.8	31.8	88	28.7	0	0	---	0.00	30.045 
20:35	31.6	31.6	31.6	88	28.5	0	0	---	0.00	30.045 
20:40	31.6	31.6	31.6	88	28.5	0	0	---	0.00	30.045 
20:45	31.6	31.6	31.6	88	28.5	0	0	---	0.00	30.046 
20:50	31.6	31.6	31.6	88	28.5	0	0	---	0.00	30.046 
20:55	31.6	31.6	31.6	88	28.5	0	0	---	0.00	30.046 
21:00	31.5	31.5	31.5	88	28.4	0	0	---	0.00	30.048 
21:05	31.5	31.5	31.5	88	28.4	0	0	---	0.00	30.048 
21:10	31.6	31.6	31.6	89	28.7	0	2	90	0.00	30.048 
21:15	31.9	31.9	31.9	88	28.8	1	2	270	0.00	30.046 
21:20	32.1	32.1	32.1	87	28.7	1	4	248	0.00	30.046 
21:25	32.2	32.2	32.2	85	28.2	2	4	248	0.00	30.046 
21:30	32.4	32.4	32.4	84	28.1	1	4	248	0.00	30.055 
21:35	32.4	32.4	32.4	82	27.5	2	5	248	0.00	30.055 
21:40	32.4	32.4	32.4	81	27.2	1	4	248	0.00	30.055 
21:45	32.4	32.4	32.4	81	27.2	1	4	248	0.00	30.057 
21:50	32.4	32.4	32.4	81	27.2	1	3	248	0.00	30.057 
21:55	32.4	32.4	32.4	81	27.2	1	3	270	0.00	30.057 
22:00	32.4	32.4	32.4	81	27.2	1	2	248	0.00	30.061 
22:05	32.2	32.2	32.2	81	27.0	0	2	248	0.00	30.061 
22:10	32.2	32.2	32.2	81	27.0	1	5	248	0.00	30.061 
22:15	32.2	32.2	32.2	82	27.3	1	3	248	0.00	30.061 
22:20	32.2	32.2	32.2	82	27.3	1	2	248	0.00	30.061 
22:25	32.1	32.1	32.1	82	27.2	2	5	270	0.00	30.061 
22:30	32.1	32.1	32.1	82	27.2	1	4	270	0.00	30.060 
22:35	32.1	32.1	32.1	82	27.2	1	4	270	0.00	30.060 
22:40	32.1	32.1	32.1	82	27.2	1	3	292	0.00	30.060 
22:45	32.1	32.1	32.1	82	27.2	1	4	270	0.00	30.061 
22:50	32.1	32.1	32.1	82	27.2	1	3	270	0.00	30.061 
22:55	31.9	31.9	31.9	82	27.0	0	2	270	0.00	30.061 
23:00	31.9	31.9	31.9	82	27.0	1	3	248	0.00	30.063 
23:05	31.8	31.8	31.8	82	26.9	1	3	248	0.00	30.063 
23:10	31.8	31.8	31.8	83	27.2	1	3	248	0.00	30.063 
23:15	31.8	31.8	31.8	83	27.2	0	2	248	0.00	30.059 
23:20	31.8	31.8	31.8	83	27.2	1	3	248	0.00	30.059 
23:25	31.6	31.6	31.6	83	27.0	1	2	248	0.00	30.059 
23:30	31.6	31.6	31.6	84	27.3	1	2	270	0.00	30.069 
23:35	31.6	31.6	31.6	84	27.3	1	2	270	0.00	30.069 
23:40	31.6	31.6	31.6	84	27.3	0	1	270	0.00	30.069 
23:45	31.6	31.6	31.6	84	27.3	0	2	270	0.00	30.073 
23:50	31.6	31.6	31.6	84	27.3	1	3	270	0.00	30.073 
23:55	31.6	31.6	31.6	84	27.3	1	2	270	0.00	30.073 

CoCoRaHS
IN-AL-39
A2 Web Hosting
Creative Commons License
GoDaddy
search engine by freefind advanced

loaded 2018-11-13 17:55:50 • last modified 2010-11-18 10:43:29
Privacy PolicyDisclaimer
• wx.awcolley.com is powered by PmWiki v.2002016 •
• all content (unless otherwise noted) © 2018 A W Colley